sensor_id;sensor_type;location;lat;lon;timestamp;P1;durP1;ratioP1;P2;durP2;ratioP2
8538;SDS011;4307;53.868;11.680;2023-12-07T00:00:48;325.90;;;50.27;;
8538;SDS011;4307;53.868;11.680;2023-12-07T00:03:14;172.23;;;44.63;;
8538;SDS011;4307;53.868;11.680;2023-12-07T00:05:42;172.50;;;46.37;;
8538;SDS011;4307;53.868;11.680;2023-12-07T00:08:09;462.50;;;52.43;;
8538;SDS011;4307;53.868;11.680;2023-12-07T00:10:36;259.20;;;47.70;;
8538;SDS011;4307;53.868;11.680;2023-12-07T00:13:03;304.47;;;50.07;;
8538;SDS011;4307;53.868;11.680;2023-12-07T00:15:30;183.67;;;46.27;;
8538;SDS011;4307;53.868;11.680;2023-12-07T00:17:56;259.50;;;48.27;;
8538;SDS011;4307;53.868;11.680;2023-12-07T00:20:25;225.57;;;45.83;;
8538;SDS011;4307;53.868;11.680;2023-12-07T00:22:53;239.70;;;48.30;;
8538;SDS011;4307;53.868;11.680;2023-12-07T00:25:20;210.10;;;47.43;;
8538;SDS011;4307;53.868;11.680;2023-12-07T00:27:47;206.47;;;45.00;;
8538;SDS011;4307;53.868;11.680;2023-12-07T00:30:13;165.33;;;42.90;;
8538;SDS011;4307;53.868;11.680;2023-12-07T00:32:39;363.63;;;52.80;;
8538;SDS011;4307;53.868;11.680;2023-12-07T00:35:08;263.10;;;48.90;;
8538;SDS011;4307;53.868;11.680;2023-12-07T00:37:35;267.50;;;48.07;;
8538;SDS011;4307;53.868;11.680;2023-12-07T00:40:03;300.10;;;50.57;;
8538;SDS011;4307;53.868;11.680;2023-12-07T00:42:31;184.77;;;45.87;;
8538;SDS011;4307;53.868;11.680;2023-12-07T00:44:59;264.53;;;47.97;;
8538;SDS011;4307;53.868;11.680;2023-12-07T00:47:25;220.63;;;47.10;;
8538;SDS011;4307;53.868;11.680;2023-12-07T00:49:52;224.53;;;47.03;;
8538;SDS011;4307;53.868;11.680;2023-12-07T00:52:18;195.73;;;46.30;;
8538;SDS011;4307;53.868;11.680;2023-12-07T00:54:45;231.43;;;47.27;;
8538;SDS011;4307;53.868;11.680;2023-12-07T00:57:14;259.47;;;46.40;;
8538;SDS011;4307;53.868;11.680;2023-12-07T00:59:40;372.10;;;49.83;;
8538;SDS011;4307;53.868;11.680;2023-12-07T01:02:07;301.97;;;46.43;;
8538;SDS011;4307;53.868;11.680;2023-12-07T01:04:34;429.83;;;51.23;;
8538;SDS011;4307;53.868;11.680;2023-12-07T01:07:00;431.37;;;50.30;;
8538;SDS011;4307;53.868;11.680;2023-12-07T01:09:27;561.13;;;56.00;;
8538;SDS011;4307;53.868;11.680;2023-12-07T01:11:53;632.37;;;56.97;;
8538;SDS011;4307;53.868;11.680;2023-12-07T01:14:22;443.50;;;49.60;;
8538;SDS011;4307;53.868;11.680;2023-12-07T01:16:48;204.97;;;46.47;;
8538;SDS011;4307;53.868;11.680;2023-12-07T01:19:15;191.03;;;46.10;;
8538;SDS011;4307;53.868;11.680;2023-12-07T01:21:42;236.77;;;47.40;;
8538;SDS011;4307;53.868;11.680;2023-12-07T01:24:08;283.37;;;49.87;;
8538;SDS011;4307;53.868;11.680;2023-12-07T01:26:35;416.47;;;51.57;;
8538;SDS011;4307;53.868;11.680;2023-12-07T01:29:02;230.13;;;48.77;;
8538;SDS011;4307;53.868;11.680;2023-12-07T01:31:30;222.77;;;45.30;;
8538;SDS011;4307;53.868;11.680;2023-12-07T01:33:57;234.53;;;44.20;;
8538;SDS011;4307;53.868;11.680;2023-12-07T01:36:24;264.17;;;50.43;;
8538;SDS011;4307;53.868;11.680;2023-12-07T01:38:50;244.53;;;46.20;;
8538;SDS011;4307;53.868;11.680;2023-12-07T01:41:17;322.73;;;49.60;;
8538;SDS011;4307;53.868;11.680;2023-12-07T01:43:44;196.60;;;44.47;;
8538;SDS011;4307;53.868;11.680;2023-12-07T01:46:11;228.20;;;45.67;;
8538;SDS011;4307;53.868;11.680;2023-12-07T01:48:40;212.33;;;47.60;;
8538;SDS011;4307;53.868;11.680;2023-12-07T01:51:07;194.97;;;45.13;;
8538;SDS011;4307;53.868;11.680;2023-12-07T01:53:35;330.80;;;46.70;;
8538;SDS011;4307;53.868;11.680;2023-12-07T01:56:02;301.53;;;44.97;;
8538;SDS011;4307;53.868;11.680;2023-12-07T01:58:28;230.10;;;46.90;;
8538;SDS011;4307;53.868;11.680;2023-12-07T02:00:56;480.47;;;52.97;;
8538;SDS011;4307;53.868;11.680;2023-12-07T02:03:23;244.50;;;46.73;;
8538;SDS011;4307;53.868;11.680;2023-12-07T02:05:51;253.37;;;45.93;;
8538;SDS011;4307;53.868;11.680;2023-12-07T02:08:18;265.60;;;46.47;;
8538;SDS011;4307;53.868;11.680;2023-12-07T02:10:44;214.73;;;45.13;;
8538;SDS011;4307;53.868;11.680;2023-12-07T02:13:11;383.73;;;49.87;;
8538;SDS011;4307;53.868;11.680;2023-12-07T02:15:38;257.80;;;47.60;;
8538;SDS011;4307;53.868;11.680;2023-12-07T02:18:06;202.77;;;43.47;;
8538;SDS011;4307;53.868;11.680;2023-12-07T02:20:41;193.60;;;45.00;;
8538;SDS011;4307;53.868;11.680;2023-12-07T02:23:14;222.40;;;45.70;;
8538;SDS011;4307;53.868;11.680;2023-12-07T02:25:44;212.57;;;44.87;;
8538;SDS011;4307;53.868;11.680;2023-12-07T02:28:18;361.40;;;49.40;;
8538;SDS011;4307;53.868;11.680;2023-12-07T02:30:45;302.47;;;47.13;;
8538;SDS011;4307;53.868;11.680;2023-12-07T02:33:12;261.77;;;45.27;;
8538;SDS011;4307;53.868;11.680;2023-12-07T02:35:40;189.07;;;43.80;;
8538;SDS011;4307;53.868;11.680;2023-12-07T02:38:07;195.70;;;43.70;;
8538;SDS011;4307;53.868;11.680;2023-12-07T02:40:34;208.10;;;45.77;;
8538;SDS011;4307;53.868;11.680;2023-12-07T02:43:02;182.90;;;44.90;;
8538;SDS011;4307;53.868;11.680;2023-12-07T02:45:31;195.80;;;45.80;;
8538;SDS011;4307;53.868;11.680;2023-12-07T02:47:58;183.33;;;42.73;;
8538;SDS011;4307;53.868;11.680;2023-12-07T02:50:25;196.47;;;44.10;;
8538;SDS011;4307;53.868;11.680;2023-12-07T02:52:52;194.20;;;45.37;;
8538;SDS011;4307;53.868;11.680;2023-12-07T02:55:18;187.47;;;42.20;;
8538;SDS011;4307;53.868;11.680;2023-12-07T02:57:46;184.87;;;44.60;;
8538;SDS011;4307;53.868;11.680;2023-12-07T03:00:13;227.13;;;44.07;;
8538;SDS011;4307;53.868;11.680;2023-12-07T03:02:41;179.73;;;43.00;;
8538;SDS011;4307;53.868;11.680;2023-12-07T03:05:08;183.33;;;44.07;;
8538;SDS011;4307;53.868;11.680;2023-12-07T03:07:35;226.63;;;45.70;;
8538;SDS011;4307;53.868;11.680;2023-12-07T03:10:02;202.07;;;44.63;;
8538;SDS011;4307;53.868;11.680;2023-12-07T03:12:29;243.83;;;47.10;;
8538;SDS011;4307;53.868;11.680;2023-12-07T03:14:56;195.00;;;43.67;;
8538;SDS011;4307;53.868;11.680;2023-12-07T03:17:22;189.13;;;45.43;;
8538;SDS011;4307;53.868;11.680;2023-12-07T03:19:50;182.93;;;43.33;;
8538;SDS011;4307;53.868;11.680;2023-12-07T03:22:17;205.47;;;45.67;;
8538;SDS011;4307;53.868;11.680;2023-12-07T03:24:45;202.47;;;46.23;;
8538;SDS011;4307;53.868;11.680;2023-12-07T03:27:12;242.50;;;45.03;;
8538;SDS011;4307;53.868;11.680;2023-12-07T03:29:39;255.93;;;44.97;;
8538;SDS011;4307;53.868;11.680;2023-12-07T03:32:06;189.73;;;43.17;;
8538;SDS011;4307;53.868;11.680;2023-12-07T03:34:33;253.27;;;46.57;;
8538;SDS011;4307;53.868;11.680;2023-12-07T03:37:01;247.83;;;44.60;;
8538;SDS011;4307;53.868;11.680;2023-12-07T03:39:28;187.60;;;41.00;;
8538;SDS011;4307;53.868;11.680;2023-12-07T03:41:56;318.10;;;45.47;;
8538;SDS011;4307;53.868;11.680;2023-12-07T03:44:23;227.23;;;43.50;;
8538;SDS011;4307;53.868;11.680;2023-12-07T03:46:51;195.10;;;45.00;;
8538;SDS011;4307;53.868;11.680;2023-12-07T03:49:18;446.40;;;51.10;;
8538;SDS011;4307;53.868;11.680;2023-12-07T03:51:45;237.80;;;42.83;;
8538;SDS011;4307;53.868;11.680;2023-12-07T03:54:13;231.30;;;43.53;;
8538;SDS011;4307;53.868;11.680;2023-12-07T03:56:39;212.03;;;44.50;;
8538;SDS011;4307;53.868;11.680;2023-12-07T03:59:06;233.83;;;48.07;;
8538;SDS011;4307;53.868;11.680;2023-12-07T04:01:33;297.10;;;46.60;;
8538;SDS011;4307;53.868;11.680;2023-12-07T04:04:00;215.97;;;43.90;;
8538;SDS011;4307;53.868;11.680;2023-12-07T04:06:27;228.40;;;45.33;;
8538;SDS011;4307;53.868;11.680;2023-12-07T04:08:53;298.87;;;42.60;;
8538;SDS011;4307;53.868;11.680;2023-12-07T04:11:22;340.37;;;46.13;;
8538;SDS011;4307;53.868;11.680;2023-12-07T04:13:48;237.90;;;43.50;;
8538;SDS011;4307;53.868;11.680;2023-12-07T04:16:15;297.57;;;43.53;;
8538;SDS011;4307;53.868;11.680;2023-12-07T04:18:42;183.53;;;41.83;;
8538;SDS011;4307;53.868;11.680;2023-12-07T04:21:08;210.70;;;43.53;;
8538;SDS011;4307;53.868;11.680;2023-12-07T04:23:35;189.93;;;43.33;;
8538;SDS011;4307;53.868;11.680;2023-12-07T04:26:02;188.67;;;41.73;;
8538;SDS011;4307;53.868;11.680;2023-12-07T04:28:30;156.43;;;40.90;;
8538;SDS011;4307;53.868;11.680;2023-12-07T04:30:56;168.13;;;39.30;;
8538;SDS011;4307;53.868;11.680;2023-12-07T04:33:24;152.60;;;40.43;;
8538;SDS011;4307;53.868;11.680;2023-12-07T04:35:51;153.97;;;40.73;;
8538;SDS011;4307;53.868;11.680;2023-12-07T04:38:17;159.63;;;40.97;;
8538;SDS011;4307;53.868;11.680;2023-12-07T04:40:44;154.40;;;41.63;;
8538;SDS011;4307;53.868;11.680;2023-12-07T04:43:11;140.50;;;39.20;;
8538;SDS011;4307;53.868;11.680;2023-12-07T04:45:39;170.83;;;43.03;;
8538;SDS011;4307;53.868;11.680;2023-12-07T04:48:06;154.80;;;38.93;;
8538;SDS011;4307;53.868;11.680;2023-12-07T04:50:33;160.23;;;40.13;;
8538;SDS011;4307;53.868;11.680;2023-12-07T04:53:00;164.27;;;44.43;;
8538;SDS011;4307;53.868;11.680;2023-12-07T04:55:26;166.50;;;44.97;;
8538;SDS011;4307;53.868;11.680;2023-12-07T04:57:53;178.90;;;45.33;;
8538;SDS011;4307;53.868;11.680;2023-12-07T05:00:19;177.77;;;46.00;;
8538;SDS011;4307;53.868;11.680;2023-12-07T05:02:49;181.27;;;45.37;;
8538;SDS011;4307;53.868;11.680;2023-12-07T05:05:15;177.00;;;46.60;;
8538;SDS011;4307;53.868;11.680;2023-12-07T05:07:42;172.53;;;46.00;;
8538;SDS011;4307;53.868;11.680;2023-12-07T05:10:09;169.93;;;48.10;;
8538;SDS011;4307;53.868;11.680;2023-12-07T05:12:35;177.00;;;45.20;;
8538;SDS011;4307;53.868;11.680;2023-12-07T05:15:02;173.47;;;46.10;;
8538;SDS011;4307;53.868;11.680;2023-12-07T05:17:31;177.93;;;45.87;;
8538;SDS011;4307;53.868;11.680;2023-12-07T05:19:59;183.27;;;46.23;;
8538;SDS011;4307;53.868;11.680;2023-12-07T05:22:25;164.13;;;43.37;;
8538;SDS011;4307;53.868;11.680;2023-12-07T05:24:52;190.07;;;47.47;;
8538;SDS011;4307;53.868;11.680;2023-12-07T05:27:19;179.77;;;45.60;;
8538;SDS011;4307;53.868;11.680;2023-12-07T05:29:45;198.87;;;46.03;;
8538;SDS011;4307;53.868;11.680;2023-12-07T05:32:12;184.53;;;46.87;;
8538;SDS011;4307;53.868;11.680;2023-12-07T05:34:39;197.40;;;44.50;;
8538;SDS011;4307;53.868;11.680;2023-12-07T05:37:07;164.20;;;43.67;;
8538;SDS011;4307;53.868;11.680;2023-12-07T05:39:34;170.87;;;44.97;;
8538;SDS011;4307;53.868;11.680;2023-12-07T05:42:00;197.67;;;45.90;;
8538;SDS011;4307;53.868;11.680;2023-12-07T05:44:29;195.10;;;43.20;;
8538;SDS011;4307;53.868;11.680;2023-12-07T05:46:55;176.13;;;43.43;;
8538;SDS011;4307;53.868;11.680;2023-12-07T05:49:22;165.77;;;44.00;;
8538;SDS011;4307;53.868;11.680;2023-12-07T05:51:49;172.23;;;45.10;;
8538;SDS011;4307;53.868;11.680;2023-12-07T05:54:19;173.67;;;46.47;;
8538;SDS011;4307;53.868;11.680;2023-12-07T05:56:47;163.10;;;45.57;;
8538;SDS011;4307;53.868;11.680;2023-12-07T05:59:14;186.10;;;48.10;;
8538;SDS011;4307;53.868;11.680;2023-12-07T06:01:40;186.70;;;46.80;;
8538;SDS011;4307;53.868;11.680;2023-12-07T06:04:08;178.23;;;48.33;;
8538;SDS011;4307;53.868;11.680;2023-12-07T06:06:35;199.07;;;47.67;;
8538;SDS011;4307;53.868;11.680;2023-12-07T06:09:02;194.57;;;47.17;;
8538;SDS011;4307;53.868;11.680;2023-12-07T06:11:31;195.63;;;50.33;;
8538;SDS011;4307;53.868;11.680;2023-12-07T06:13:58;189.93;;;48.00;;
8538;SDS011;4307;53.868;11.680;2023-12-07T06:16:25;197.77;;;49.50;;
8538;SDS011;4307;53.868;11.680;2023-12-07T06:18:51;174.77;;;45.73;;
8538;SDS011;4307;53.868;11.680;2023-12-07T06:21:18;177.73;;;46.83;;
8538;SDS011;4307;53.868;11.680;2023-12-07T06:23:45;176.97;;;46.07;;
8538;SDS011;4307;53.868;11.680;2023-12-07T06:26:12;195.20;;;46.93;;
8538;SDS011;4307;53.868;11.680;2023-12-07T06:28:40;184.20;;;48.47;;
8538;SDS011;4307;53.868;11.680;2023-12-07T06:31:07;191.37;;;47.13;;
8538;SDS011;4307;53.868;11.680;2023-12-07T06:33:34;183.40;;;46.40;;
8538;SDS011;4307;53.868;11.680;2023-12-07T06:36:01;183.47;;;47.00;;
8538;SDS011;4307;53.868;11.680;2023-12-07T06:38:29;182.63;;;46.20;;
8538;SDS011;4307;53.868;11.680;2023-12-07T06:40:56;157.60;;;42.37;;
8538;SDS011;4307;53.868;11.680;2023-12-07T06:43:23;177.53;;;44.70;;
8538;SDS011;4307;53.868;11.680;2023-12-07T06:45:51;156.03;;;42.37;;
8538;SDS011;4307;53.868;11.680;2023-12-07T06:48:17;185.63;;;48.10;;
8538;SDS011;4307;53.868;11.680;2023-12-07T06:50:44;164.03;;;44.70;;
8538;SDS011;4307;53.868;11.680;2023-12-07T06:53:11;160.80;;;45.83;;
8538;SDS011;4307;53.868;11.680;2023-12-07T06:55:38;171.60;;;44.83;;
8538;SDS011;4307;53.868;11.680;2023-12-07T06:58:04;192.63;;;44.97;;
8538;SDS011;4307;53.868;11.680;2023-12-07T07:00:31;174.03;;;46.60;;
8538;SDS011;4307;53.868;11.680;2023-12-07T07:02:59;170.27;;;45.13;;
8538;SDS011;4307;53.868;11.680;2023-12-07T07:05:26;170.03;;;44.97;;
8538;SDS011;4307;53.868;11.680;2023-12-07T07:07:53;153.97;;;43.83;;
8538;SDS011;4307;53.868;11.680;2023-12-07T07:10:20;172.00;;;43.40;;
8538;SDS011;4307;53.868;11.680;2023-12-07T07:12:47;175.53;;;43.57;;
8538;SDS011;4307;53.868;11.680;2023-12-07T07:15:15;161.50;;;43.47;;
8538;SDS011;4307;53.868;11.680;2023-12-07T07:17:42;164.27;;;43.97;;
8538;SDS011;4307;53.868;11.680;2023-12-07T07:20:10;160.70;;;42.93;;
8538;SDS011;4307;53.868;11.680;2023-12-07T07:22:37;161.17;;;43.20;;
8538;SDS011;4307;53.868;11.680;2023-12-07T07:25:04;159.43;;;43.57;;
8538;SDS011;4307;53.868;11.680;2023-12-07T07:27:31;166.50;;;42.23;;
8538;SDS011;4307;53.868;11.680;2023-12-07T07:29:59;173.47;;;46.80;;
8538;SDS011;4307;53.868;11.680;2023-12-07T07:32:25;158.13;;;42.60;;
8538;SDS011;4307;53.868;11.680;2023-12-07T07:34:52;180.43;;;46.03;;
8538;SDS011;4307;53.868;11.680;2023-12-07T07:37:20;176.40;;;43.43;;
8538;SDS011;4307;53.868;11.680;2023-12-07T07:39:47;163.03;;;42.43;;
8538;SDS011;4307;53.868;11.680;2023-12-07T07:42:14;161.93;;;41.90;;
8538;SDS011;4307;53.868;11.680;2023-12-07T07:44:41;143.20;;;41.03;;
8538;SDS011;4307;53.868;11.680;2023-12-07T07:47:08;152.87;;;42.40;;
8538;SDS011;4307;53.868;11.680;2023-12-07T07:49:34;151.50;;;42.13;;
8538;SDS011;4307;53.868;11.680;2023-12-07T07:52:02;157.60;;;40.67;;
8538;SDS011;4307;53.868;11.680;2023-12-07T07:54:31;162.37;;;40.87;;
8538;SDS011;4307;53.868;11.680;2023-12-07T07:56:58;145.90;;;38.20;;
8538;SDS011;4307;53.868;11.680;2023-12-07T07:59:24;140.77;;;38.00;;
8538;SDS011;4307;53.868;11.680;2023-12-07T08:01:51;163.63;;;40.73;;
8538;SDS011;4307;53.868;11.680;2023-12-07T08:04:18;166.23;;;43.73;;
8538;SDS011;4307;53.868;11.680;2023-12-07T08:06:51;136.33;;;37.60;;
8538;SDS011;4307;53.868;11.680;2023-12-07T08:09:24;153.50;;;39.80;;
8538;SDS011;4307;53.868;11.680;2023-12-07T08:11:52;136.87;;;40.10;;
8538;SDS011;4307;53.868;11.680;2023-12-07T08:14:22;156.53;;;40.77;;
8538;SDS011;4307;53.868;11.680;2023-12-07T08:17:05;149.73;;;38.73;;
8538;SDS011;4307;53.868;11.680;2023-12-07T08:19:44;158.27;;;39.37;;
8538;SDS011;4307;53.868;11.680;2023-12-07T08:22:19;142.07;;;37.93;;
8538;SDS011;4307;53.868;11.680;2023-12-07T08:24:48;139.67;;;38.77;;
8538;SDS011;4307;53.868;11.680;2023-12-07T08:27:26;143.27;;;39.70;;
8538;SDS011;4307;53.868;11.680;2023-12-07T08:32:34;149.73;;;37.93;;
8538;SDS011;4307;53.868;11.680;2023-12-07T08:35:19;143.63;;;37.97;;
8538;SDS011;4307;53.868;11.680;2023-12-07T08:37:49;150.70;;;37.87;;
8538;SDS011;4307;53.868;11.680;2023-12-07T08:40:22;163.37;;;39.00;;
8538;SDS011;4307;53.868;11.680;2023-12-07T08:45:40;140.93;;;39.50;;
8538;SDS011;4307;53.868;11.680;2023-12-07T08:48:09;143.50;;;38.27;;
8538;SDS011;4307;53.868;11.680;2023-12-07T08:50:36;161.23;;;39.70;;
8538;SDS011;4307;53.868;11.680;2023-12-07T08:53:03;158.83;;;36.83;;
8538;SDS011;4307;53.868;11.680;2023-12-07T08:55:30;152.97;;;37.13;;
8538;SDS011;4307;53.868;11.680;2023-12-07T08:57:56;145.70;;;36.10;;
8538;SDS011;4307;53.868;11.680;2023-12-07T09:00:25;152.47;;;36.83;;
8538;SDS011;4307;53.868;11.680;2023-12-07T09:02:51;170.13;;;38.20;;
8538;SDS011;4307;53.868;11.680;2023-12-07T09:05:18;161.77;;;36.37;;
8538;SDS011;4307;53.868;11.680;2023-12-07T09:07:44;164.63;;;37.43;;
8538;SDS011;4307;53.868;11.680;2023-12-07T09:10:12;172.70;;;36.73;;
8538;SDS011;4307;53.868;11.680;2023-12-07T09:12:39;163.37;;;34.93;;
8538;SDS011;4307;53.868;11.680;2023-12-07T09:15:06;157.80;;;34.50;;
8538;SDS011;4307;53.868;11.680;2023-12-07T09:17:36;150.30;;;33.83;;
8538;SDS011;4307;53.868;11.680;2023-12-07T09:20:03;151.87;;;34.50;;
8538;SDS011;4307;53.868;11.680;2023-12-07T09:22:32;143.37;;;34.83;;
8538;SDS011;4307;53.868;11.680;2023-12-07T09:24:59;152.30;;;32.53;;
8538;SDS011;4307;53.868;11.680;2023-12-07T09:27:26;149.73;;;33.20;;
8538;SDS011;4307;53.868;11.680;2023-12-07T09:29:53;144.60;;;32.80;;
8538;SDS011;4307;53.868;11.680;2023-12-07T09:32:19;152.07;;;32.97;;
8538;SDS011;4307;53.868;11.680;2023-12-07T09:34:47;126.37;;;32.20;;
8538;SDS011;4307;53.868;11.680;2023-12-07T09:37:16;137.80;;;32.80;;
8538;SDS011;4307;53.868;11.680;2023-12-07T09:39:42;135.60;;;33.67;;
8538;SDS011;4307;53.868;11.680;2023-12-07T09:42:09;150.43;;;34.47;;
8538;SDS011;4307;53.868;11.680;2023-12-07T09:44:36;150.57;;;32.97;;
8538;SDS011;4307;53.868;11.680;2023-12-07T09:47:03;129.93;;;31.90;;
8538;SDS011;4307;53.868;11.680;2023-12-07T09:49:30;155.50;;;34.20;;
8538;SDS011;4307;53.868;11.680;2023-12-07T09:51:58;128.50;;;33.90;;
8538;SDS011;4307;53.868;11.680;2023-12-07T09:54:25;147.80;;;34.33;;
8538;SDS011;4307;53.868;11.680;2023-12-07T09:56:54;149.77;;;32.07;;
8538;SDS011;4307;53.868;11.680;2023-12-07T09:59:22;147.73;;;32.17;;
8538;SDS011;4307;53.868;11.680;2023-12-07T10:01:48;142.03;;;33.90;;
8538;SDS011;4307;53.868;11.680;2023-12-07T10:04:15;162.70;;;33.33;;
8538;SDS011;4307;53.868;11.680;2023-12-07T10:06:43;141.77;;;34.13;;
8538;SDS011;4307;53.868;11.680;2023-12-07T10:09:11;155.20;;;33.63;;
8538;SDS011;4307;53.868;11.680;2023-12-07T10:11:39;129.93;;;31.97;;
8538;SDS011;4307;53.868;11.680;2023-12-07T10:14:08;129.07;;;32.80;;
8538;SDS011;4307;53.868;11.680;2023-12-07T10:16:35;146.73;;;32.77;;
8538;SDS011;4307;53.868;11.680;2023-12-07T10:19:12;149.93;;;32.03;;
8538;SDS011;4307;53.868;11.680;2023-12-07T10:21:42;134.70;;;31.87;;
8538;SDS011;4307;53.868;11.680;2023-12-07T10:24:09;146.50;;;33.03;;
8538;SDS011;4307;53.868;11.680;2023-12-07T10:26:37;139.40;;;32.77;;
8538;SDS011;4307;53.868;11.680;2023-12-07T10:29:05;142.13;;;30.60;;
8538;SDS011;4307;53.868;11.680;2023-12-07T10:31:32;133.53;;;32.43;;
8538;SDS011;4307;53.868;11.680;2023-12-07T10:33:58;157.50;;;32.97;;
8538;SDS011;4307;53.868;11.680;2023-12-07T10:36:26;155.63;;;33.47;;
8538;SDS011;4307;53.868;11.680;2023-12-07T10:38:53;151.30;;;35.53;;
8538;SDS011;4307;53.868;11.680;2023-12-07T10:41:20;163.47;;;34.27;;
8538;SDS011;4307;53.868;11.680;2023-12-07T10:43:51;159.73;;;34.03;;
8538;SDS011;4307;53.868;11.680;2023-12-07T10:46:19;158.03;;;33.07;;
8538;SDS011;4307;53.868;11.680;2023-12-07T10:48:47;152.23;;;34.57;;
8538;SDS011;4307;53.868;11.680;2023-12-07T10:51:17;142.07;;;33.73;;
8538;SDS011;4307;53.868;11.680;2023-12-07T10:53:48;133.17;;;30.97;;
8538;SDS011;4307;53.868;11.680;2023-12-07T10:56:21;142.50;;;34.23;;
8538;SDS011;4307;53.868;11.680;2023-12-07T10:58:55;140.23;;;33.80;;
8538;SDS011;4307;53.868;11.680;2023-12-07T11:01:23;141.77;;;33.97;;
8538;SDS011;4307;53.868;11.680;2023-12-07T11:03:51;144.30;;;32.33;;
8538;SDS011;4307;53.868;11.680;2023-12-07T11:06:19;135.57;;;31.90;;
8538;SDS011;4307;53.868;11.680;2023-12-07T11:08:46;138.50;;;34.93;;
8538;SDS011;4307;53.868;11.680;2023-12-07T11:11:19;167.57;;;35.47;;
8538;SDS011;4307;53.868;11.680;2023-12-07T11:13:52;124.93;;;32.47;;
8538;SDS011;4307;53.868;11.680;2023-12-07T11:16:29;145.67;;;33.17;;
8538;SDS011;4307;53.868;11.680;2023-12-07T11:18:57;163.97;;;34.80;;
8538;SDS011;4307;53.868;11.680;2023-12-07T11:21:24;140.30;;;34.70;;
8538;SDS011;4307;53.868;11.680;2023-12-07T11:23:50;147.37;;;34.63;;
8538;SDS011;4307;53.868;11.680;2023-12-07T11:26:19;152.80;;;35.30;;
8538;SDS011;4307;53.868;11.680;2023-12-07T11:28:45;118.43;;;31.33;;
8538;SDS011;4307;53.868;11.680;2023-12-07T11:31:13;150.23;;;32.80;;
8538;SDS011;4307;53.868;11.680;2023-12-07T11:33:41;133.17;;;31.30;;
8538;SDS011;4307;53.868;11.680;2023-12-07T11:36:09;131.57;;;34.67;;
8538;SDS011;4307;53.868;11.680;2023-12-07T11:38:37;126.53;;;33.10;;
8538;SDS011;4307;53.868;11.680;2023-12-07T11:41:04;126.07;;;31.47;;
8538;SDS011;4307;53.868;11.680;2023-12-07T11:43:40;144.27;;;33.73;;
8538;SDS011;4307;53.868;11.680;2023-12-07T11:46:11;136.90;;;32.13;;
8538;SDS011;4307;53.868;11.680;2023-12-07T11:48:40;108.40;;;30.20;;
8538;SDS011;4307;53.868;11.680;2023-12-07T11:51:12;140.63;;;34.43;;
8538;SDS011;4307;53.868;11.680;2023-12-07T11:53:39;113.50;;;30.30;;
8538;SDS011;4307;53.868;11.680;2023-12-07T11:56:06;132.73;;;32.80;;
8538;SDS011;4307;53.868;11.680;2023-12-07T11:58:35;139.47;;;32.27;;
8538;SDS011;4307;53.868;11.680;2023-12-07T12:01:02;137.10;;;31.27;;
8538;SDS011;4307;53.868;11.680;2023-12-07T12:03:30;122.90;;;31.20;;
8538;SDS011;4307;53.868;11.680;2023-12-07T12:05:59;117.93;;;31.27;;
8538;SDS011;4307;53.868;11.680;2023-12-07T12:08:25;127.90;;;31.67;;
8538;SDS011;4307;53.868;11.680;2023-12-07T12:10:53;132.10;;;32.63;;
8538;SDS011;4307;53.868;11.680;2023-12-07T12:13:25;128.63;;;33.27;;
8538;SDS011;4307;53.868;11.680;2023-12-07T12:15:53;136.17;;;33.27;;
8538;SDS011;4307;53.868;11.680;2023-12-07T12:18:21;145.27;;;33.17;;
8538;SDS011;4307;53.868;11.680;2023-12-07T12:20:49;124.03;;;32.50;;
8538;SDS011;4307;53.868;11.680;2023-12-07T12:23:17;140.47;;;35.10;;
8538;SDS011;4307;53.868;11.680;2023-12-07T12:25:44;124.93;;;31.60;;
8538;SDS011;4307;53.868;11.680;2023-12-07T12:28:13;115.07;;;29.17;;
8538;SDS011;4307;53.868;11.680;2023-12-07T12:30:42;128.10;;;33.27;;
8538;SDS011;4307;53.868;11.680;2023-12-07T12:33:09;130.33;;;34.23;;
8538;SDS011;4307;53.868;11.680;2023-12-07T12:35:36;145.87;;;34.37;;
8538;SDS011;4307;53.868;11.680;2023-12-07T12:38:02;135.87;;;32.07;;
8538;SDS011;4307;53.868;11.680;2023-12-07T12:40:36;120.17;;;30.37;;
8538;SDS011;4307;53.868;11.680;2023-12-07T12:43:03;132.77;;;31.87;;
8538;SDS011;4307;53.868;11.680;2023-12-07T12:45:31;142.63;;;32.33;;
8538;SDS011;4307;53.868;11.680;2023-12-07T12:47:58;125.90;;;30.47;;
8538;SDS011;4307;53.868;11.680;2023-12-07T12:50:32;114.80;;;31.80;;
8538;SDS011;4307;53.868;11.680;2023-12-07T12:52:59;126.00;;;35.37;;
8538;SDS011;4307;53.868;11.680;2023-12-07T12:55:30;118.67;;;33.77;;
8538;SDS011;4307;53.868;11.680;2023-12-07T12:57:58;113.90;;;32.70;;
8538;SDS011;4307;53.868;11.680;2023-12-07T13:00:25;114.37;;;31.03;;
8538;SDS011;4307;53.868;11.680;2023-12-07T13:02:52;123.73;;;31.37;;
8538;SDS011;4307;53.868;11.680;2023-12-07T13:05:18;104.30;;;30.83;;
8538;SDS011;4307;53.868;11.680;2023-12-07T13:07:45;99.90;;;29.10;;
8538;SDS011;4307;53.868;11.680;2023-12-07T13:10:13;94.97;;;29.93;;
8538;SDS011;4307;53.868;11.680;2023-12-07T13:12:40;111.07;;;31.87;;
8538;SDS011;4307;53.868;11.680;2023-12-07T13:15:09;93.47;;;28.93;;
8538;SDS011;4307;53.868;11.680;2023-12-07T13:17:37;87.30;;;29.73;;
8538;SDS011;4307;53.868;11.680;2023-12-07T13:20:04;93.23;;;28.10;;
8538;SDS011;4307;53.868;11.680;2023-12-07T13:22:32;107.30;;;30.47;;
8538;SDS011;4307;53.868;11.680;2023-12-07T13:24:59;103.33;;;31.20;;
8538;SDS011;4307;53.868;11.680;2023-12-07T13:27:26;106.87;;;29.87;;
8538;SDS011;4307;53.868;11.680;2023-12-07T13:29:53;104.67;;;31.97;;
8538;SDS011;4307;53.868;11.680;2023-12-07T13:32:21;101.07;;;31.07;;
8538;SDS011;4307;53.868;11.680;2023-12-07T13:34:48;111.20;;;30.70;;
8538;SDS011;4307;53.868;11.680;2023-12-07T13:37:15;105.63;;;29.43;;
8538;SDS011;4307;53.868;11.680;2023-12-07T13:39:42;105.53;;;30.33;;
8538;SDS011;4307;53.868;11.680;2023-12-07T13:42:08;105.30;;;32.70;;
8538;SDS011;4307;53.868;11.680;2023-12-07T13:44:35;103.03;;;33.60;;
8538;SDS011;4307;53.868;11.680;2023-12-07T13:47:02;91.80;;;28.00;;
8538;SDS011;4307;53.868;11.680;2023-12-07T13:49:30;107.37;;;31.17;;
8538;SDS011;4307;53.868;11.680;2023-12-07T13:51:57;94.80;;;30.10;;
8538;SDS011;4307;53.868;11.680;2023-12-07T13:54:25;105.63;;;30.60;;
8538;SDS011;4307;53.868;11.680;2023-12-07T13:56:51;92.53;;;28.67;;
8538;SDS011;4307;53.868;11.680;2023-12-07T13:59:18;82.30;;;30.37;;
8538;SDS011;4307;53.868;11.680;2023-12-07T14:01:45;96.97;;;29.23;;
8538;SDS011;4307;53.868;11.680;2023-12-07T14:04:11;109.43;;;31.03;;
8538;SDS011;4307;53.868;11.680;2023-12-07T14:06:39;91.60;;;29.00;;
8538;SDS011;4307;53.868;11.680;2023-12-07T14:09:06;98.20;;;28.97;;
8538;SDS011;4307;53.868;11.680;2023-12-07T14:11:33;99.83;;;34.00;;
8538;SDS011;4307;53.868;11.680;2023-12-07T14:13:59;111.53;;;41.03;;
8538;SDS011;4307;53.868;11.680;2023-12-07T14:16:28;102.67;;;32.13;;
8538;SDS011;4307;53.868;11.680;2023-12-07T14:18:55;91.17;;;29.93;;
8538;SDS011;4307;53.868;11.680;2023-12-07T14:21:22;103.67;;;30.37;;
8538;SDS011;4307;53.868;11.680;2023-12-07T14:23:51;82.87;;;27.00;;
8538;SDS011;4307;53.868;11.680;2023-12-07T14:26:19;83.57;;;26.87;;
8538;SDS011;4307;53.868;11.680;2023-12-07T14:28:46;100.60;;;27.03;;